sensor_id;sensor_type;location;lat;lon;timestamp;temperature;humidity
4635;DHT22;2330;48.158;11.816;2023-08-01T00:00:14;19.00;98.50
4635;DHT22;2330;48.158;11.816;2023-08-01T00:02:41;19.00;98.50
4635;DHT22;2330;48.158;11.816;2023-08-01T00:05:09;19.00;98.50
4635;DHT22;2330;48.158;11.816;2023-08-01T00:07:36;19.00;98.50
4635;DHT22;2330;48.158;11.816;2023-08-01T00:10:04;19.00;98.50
4635;DHT22;2330;48.158;11.816;2023-08-01T00:12:31;19.00;98.50
4635;DHT22;2330;48.158;11.816;2023-08-01T00:14:58;19.00;98.50
4635;DHT22;2330;48.158;11.816;2023-08-01T00:17:25;19.00;98.50
4635;DHT22;2330;48.158;11.816;2023-08-01T00:19:52;19.00;98.50
4635;DHT22;2330;48.158;11.816;2023-08-01T00:22:19;19.10;98.30
4635;DHT22;2330;48.158;11.816;2023-08-01T00:24:46;19.10;97.70
4635;DHT22;2330;48.158;11.816;2023-08-01T00:27:14;19.20;97.30
4635;DHT22;2330;48.158;11.816;2023-08-01T00:29:41;19.20;96.70
4635;DHT22;2330;48.158;11.816;2023-08-01T00:32:08;19.20;96.40
4635;DHT22;2330;48.158;11.816;2023-08-01T00:34:35;19.20;96.40
4635;DHT22;2330;48.158;11.816;2023-08-01T00:37:01;19.20;96.00
4635;DHT22;2330;48.158;11.816;2023-08-01T00:39:28;19.30;95.80
4635;DHT22;2330;48.158;11.816;2023-08-01T00:41:55;19.30;95.80
4635;DHT22;2330;48.158;11.816;2023-08-01T00:44:22;19.20;95.90
4635;DHT22;2330;48.158;11.816;2023-08-01T00:46:49;19.30;95.40
4635;DHT22;2330;48.158;11.816;2023-08-01T00:49:16;19.40;95.20
4635;DHT22;2330;48.158;11.816;2023-08-01T00:51:43;19.30;95.40
4635;DHT22;2330;48.158;11.816;2023-08-01T00:54:10;19.30;95.50
4635;DHT22;2330;48.158;11.816;2023-08-01T00:56:37;19.30;95.60
4635;DHT22;2330;48.158;11.816;2023-08-01T00:59:05;19.20;95.80
4635;DHT22;2330;48.158;11.816;2023-08-01T01:04:01;19.20;95.90
4635;DHT22;2330;48.158;11.816;2023-08-01T01:06:33;19.20;96.40
4635;DHT22;2330;48.158;11.816;2023-08-01T01:09:02;19.20;95.90
4635;DHT22;2330;48.158;11.816;2023-08-01T01:11:31;19.30;95.50
4635;DHT22;2330;48.158;11.816;2023-08-01T01:13:58;19.40;95.30
4635;DHT22;2330;48.158;11.816;2023-08-01T01:16:25;19.30;95.40
4635;DHT22;2330;48.158;11.816;2023-08-01T01:18:51;19.30;95.40
4635;DHT22;2330;48.158;11.816;2023-08-01T01:21:18;19.30;95.40
4635;DHT22;2330;48.158;11.816;2023-08-01T01:23:46;19.30;95.40
4635;DHT22;2330;48.158;11.816;2023-08-01T01:26:15;19.30;95.60
4635;DHT22;2330;48.158;11.816;2023-08-01T01:28:43;19.30;95.70
4635;DHT22;2330;48.158;11.816;2023-08-01T01:31:10;19.20;96.00
4635;DHT22;2330;48.158;11.816;2023-08-01T01:33:37;19.20;96.20
4635;DHT22;2330;48.158;11.816;2023-08-01T01:36:05;19.20;96.20
4635;DHT22;2330;48.158;11.816;2023-08-01T01:38:31;19.30;96.50
4635;DHT22;2330;48.158;11.816;2023-08-01T01:40:58;19.30;96.90
4635;DHT22;2330;48.158;11.816;2023-08-01T01:43:25;19.20;97.50
4635;DHT22;2330;48.158;11.816;2023-08-01T01:45:51;19.10;98.00
4635;DHT22;2330;48.158;11.816;2023-08-01T01:48:18;19.00;98.50
4635;DHT22;2330;48.158;11.816;2023-08-01T01:50:45;19.00;98.50
4635;DHT22;2330;48.158;11.816;2023-08-01T01:53:12;19.00;98.50
4635;DHT22;2330;48.158;11.816;2023-08-01T01:55:39;19.00;98.50
4635;DHT22;2330;48.158;11.816;2023-08-01T01:58:06;18.90;98.50
4635;DHT22;2330;48.158;11.816;2023-08-01T02:00:33;18.90;98.50
4635;DHT22;2330;48.158;11.816;2023-08-01T02:03:00;18.90;98.50
4635;DHT22;2330;48.158;11.816;2023-08-01T02:05:29;18.90;98.50
4635;DHT22;2330;48.158;11.816;2023-08-01T02:07:56;18.90;98.50
4635;DHT22;2330;48.158;11.816;2023-08-01T02:10:23;18.90;98.50
4635;DHT22;2330;48.158;11.816;2023-08-01T02:12:50;18.90;98.50
4635;DHT22;2330;48.158;11.816;2023-08-01T02:15:17;18.90;98.50
4635;DHT22;2330;48.158;11.816;2023-08-01T02:17:43;18.80;98.50
4635;DHT22;2330;48.158;11.816;2023-08-01T02:20:11;18.90;98.50
4635;DHT22;2330;48.158;11.816;2023-08-01T02:22:37;18.80;98.50
4635;DHT22;2330;48.158;11.816;2023-08-01T02:25:05;18.80;98.50
4635;DHT22;2330;48.158;11.816;2023-08-01T02:27:31;18.80;98.50
4635;DHT22;2330;48.158;11.816;2023-08-01T02:29:58;18.80;98.50
4635;DHT22;2330;48.158;11.816;2023-08-01T02:32:25;18.80;98.50
4635;DHT22;2330;48.158;11.816;2023-08-01T02:34:52;18.70;98.50
4635;DHT22;2330;48.158;11.816;2023-08-01T02:37:19;18.70;98.50
4635;DHT22;2330;48.158;11.816;2023-08-01T02:39:46;18.70;98.50
4635;DHT22;2330;48.158;11.816;2023-08-01T02:42:13;18.70;98.50
4635;DHT22;2330;48.158;11.816;2023-08-01T02:44:39;18.70;98.50
4635;DHT22;2330;48.158;11.816;2023-08-01T02:47:06;18.70;98.50
4635;DHT22;2330;48.158;11.816;2023-08-01T02:49:33;18.80;98.50
4635;DHT22;2330;48.158;11.816;2023-08-01T02:52:00;18.80;98.50
4635;DHT22;2330;48.158;11.816;2023-08-01T02:54:26;18.80;98.50
4635;DHT22;2330;48.158;11.816;2023-08-01T02:56:53;18.80;98.50
4635;DHT22;2330;48.158;11.816;2023-08-01T02:59:20;18.80;98.50
4635;DHT22;2330;48.158;11.816;2023-08-01T03:01:47;18.80;98.50
4635;DHT22;2330;48.158;11.816;2023-08-01T03:04:13;18.80;98.50
4635;DHT22;2330;48.158;11.816;2023-08-01T03:06:41;18.80;98.50
4635;DHT22;2330;48.158;11.816;2023-08-01T03:09:09;18.80;98.50
4635;DHT22;2330;48.158;11.816;2023-08-01T03:11:36;18.80;98.50
4635;DHT22;2330;48.158;11.816;2023-08-01T03:14:03;18.80;98.50
4635;DHT22;2330;48.158;11.816;2023-08-01T03:16:33;18.80;98.50
4635;DHT22;2330;48.158;11.816;2023-08-01T03:19:00;18.80;98.50
4635;DHT22;2330;48.158;11.816;2023-08-01T03:21:34;18.80;98.50
4635;DHT22;2330;48.158;11.816;2023-08-01T03:24:03;18.70;98.50
4635;DHT22;2330;48.158;11.816;2023-08-01T03:26:30;18.60;98.50
4635;DHT22;2330;48.158;11.816;2023-08-01T03:28:57;18.60;98.50
4635;DHT22;2330;48.158;11.816;2023-08-01T03:31:24;18.60;98.50
4635;DHT22;2330;48.158;11.816;2023-08-01T03:33:51;18.60;98.50
4635;DHT22;2330;48.158;11.816;2023-08-01T03:36:17;18.60;98.50
4635;DHT22;2330;48.158;11.816;2023-08-01T03:38:44;18.60;98.50
4635;DHT22;2330;48.158;11.816;2023-08-01T03:41:11;18.70;98.50
4635;DHT22;2330;48.158;11.816;2023-08-01T03:43:38;18.60;98.50
4635;DHT22;2330;48.158;11.816;2023-08-01T03:46:05;18.80;98.50
4635;DHT22;2330;48.158;11.816;2023-08-01T03:48:31;18.80;98.50
4635;DHT22;2330;48.158;11.816;2023-08-01T03:50:58;18.90;98.50
4635;DHT22;2330;48.158;11.816;2023-08-01T03:53:25;19.00;98.50
4635;DHT22;2330;48.158;11.816;2023-08-01T03:55:52;19.00;98.50
4635;DHT22;2330;48.158;11.816;2023-08-01T03:58:18;19.10;98.50
4635;DHT22;2330;48.158;11.816;2023-08-01T04:00:45;19.30;98.50
4635;DHT22;2330;48.158;11.816;2023-08-01T04:03:12;19.30;98.50
4635;DHT22;2330;48.158;11.816;2023-08-01T04:05:39;19.30;98.50
4635;DHT22;2330;48.158;11.816;2023-08-01T04:08:06;19.30;98.50
4635;DHT22;2330;48.158;11.816;2023-08-01T04:10:33;19.20;98.50
4635;DHT22;2330;48.158;11.816;2023-08-01T04:13:00;19.10;98.50
4635;DHT22;2330;48.158;11.816;2023-08-01T04:15:27;19.20;98.50
4635;DHT22;2330;48.158;11.816;2023-08-01T04:17:54;19.20;98.50
4635;DHT22;2330;48.158;11.816;2023-08-01T04:20:20;19.10;98.50
4635;DHT22;2330;48.158;11.816;2023-08-01T04:22:47;18.90;98.50
4635;DHT22;2330;48.158;11.816;2023-08-01T04:25:14;18.80;98.50
4635;DHT22;2330;48.158;11.816;2023-08-01T04:27:41;18.70;98.50
4635;DHT22;2330;48.158;11.816;2023-08-01T04:30:08;18.70;98.50
4635;DHT22;2330;48.158;11.816;2023-08-01T04:32:35;18.60;98.50
4635;DHT22;2330;48.158;11.816;2023-08-01T04:35:02;18.60;98.50
4635;DHT22;2330;48.158;11.816;2023-08-01T04:37:28;18.50;98.50
4635;DHT22;2330;48.158;11.816;2023-08-01T04:39:55;18.50;98.50
4635;DHT22;2330;48.158;11.816;2023-08-01T04:42:22;18.40;98.50
4635;DHT22;2330;48.158;11.816;2023-08-01T04:44:49;18.40;98.50
4635;DHT22;2330;48.158;11.816;2023-08-01T04:47:16;18.40;98.50
4635;DHT22;2330;48.158;11.816;2023-08-01T04:49:43;18.40;98.50
4635;DHT22;2330;48.158;11.816;2023-08-01T04:52:09;18.30;98.50
4635;DHT22;2330;48.158;11.816;2023-08-01T04:54:36;18.30;98.50
4635;DHT22;2330;48.158;11.816;2023-08-01T04:57:03;18.20;98.50
4635;DHT22;2330;48.158;11.816;2023-08-01T04:59:30;18.20;98.50
4635;DHT22;2330;48.158;11.816;2023-08-01T05:01:57;18.20;98.50
4635;DHT22;2330;48.158;11.816;2023-08-01T05:04:24;18.20;98.50
4635;DHT22;2330;48.158;11.816;2023-08-01T05:06:51;18.20;98.50
4635;DHT22;2330;48.158;11.816;2023-08-01T05:09:18;18.20;98.50
4635;DHT22;2330;48.158;11.816;2023-08-01T05:11:45;18.20;98.50
4635;DHT22;2330;48.158;11.816;2023-08-01T05:14:12;18.10;98.50
4635;DHT22;2330;48.158;11.816;2023-08-01T05:16:39;18.20;98.50
4635;DHT22;2330;48.158;11.816;2023-08-01T05:19:07;18.10;98.50
4635;DHT22;2330;48.158;11.816;2023-08-01T05:21:33;18.00;98.50
4635;DHT22;2330;48.158;11.816;2023-08-01T05:24:00;18.10;98.50
4635;DHT22;2330;48.158;11.816;2023-08-01T05:26:27;18.10;98.50
4635;DHT22;2330;48.158;11.816;2023-08-01T05:28:54;18.00;98.50
4635;DHT22;2330;48.158;11.816;2023-08-01T05:31:21;18.00;98.50
4635;DHT22;2330;48.158;11.816;2023-08-01T05:33:47;18.10;98.50
4635;DHT22;2330;48.158;11.816;2023-08-01T05:36:14;18.10;98.50
4635;DHT22;2330;48.158;11.816;2023-08-01T05:38:41;18.10;98.50
4635;DHT22;2330;48.158;11.816;2023-08-01T05:41:08;18.10;98.50
4635;DHT22;2330;48.158;11.816;2023-08-01T05:43:34;18.10;98.50
4635;DHT22;2330;48.158;11.816;2023-08-01T05:46:01;18.00;98.50
4635;DHT22;2330;48.158;11.816;2023-08-01T05:48:28;18.10;98.50
4635;DHT22;2330;48.158;11.816;2023-08-01T05:50:55;18.10;98.50
4635;DHT22;2330;48.158;11.816;2023-08-01T05:53:22;18.10;98.50
4635;DHT22;2330;48.158;11.816;2023-08-01T05:55:49;18.20;98.50
4635;DHT22;2330;48.158;11.816;2023-08-01T05:58:16;18.10;98.50
4635;DHT22;2330;48.158;11.816;2023-08-01T06:00:43;18.10;98.50
4635;DHT22;2330;48.158;11.816;2023-08-01T06:03:10;18.10;98.50
4635;DHT22;2330;48.158;11.816;2023-08-01T06:09:16;18.20;98.50
4635;DHT22;2330;48.158;11.816;2023-08-01T06:11:43;18.10;98.50
4635;DHT22;2330;48.158;11.816;2023-08-01T06:14:10;18.10;98.50
4635;DHT22;2330;48.158;11.816;2023-08-01T06:16:37;18.00;98.50
4635;DHT22;2330;48.158;11.816;2023-08-01T06:19:04;17.90;98.50
4635;DHT22;2330;48.158;11.816;2023-08-01T06:21:31;18.00;98.50
4635;DHT22;2330;48.158;11.816;2023-08-01T06:23:58;18.00;98.50
4635;DHT22;2330;48.158;11.816;2023-08-01T06:26:25;18.10;98.50
4635;DHT22;2330;48.158;11.816;2023-08-01T06:28:51;18.10;98.50
4635;DHT22;2330;48.158;11.816;2023-08-01T06:31:22;18.20;98.50
4635;DHT22;2330;48.158;11.816;2023-08-01T06:33:49;18.10;98.50
4635;DHT22;2330;48.158;11.816;2023-08-01T06:36:16;18.10;98.50
4635;DHT22;2330;48.158;11.816;2023-08-01T06:38:44;18.10;98.50
4635;DHT22;2330;48.158;11.816;2023-08-01T06:41:10;18.10;98.50
4635;DHT22;2330;48.158;11.816;2023-08-01T06:43:37;18.20;98.50
4635;DHT22;2330;48.158;11.816;2023-08-01T06:46:05;18.20;98.50
4635;DHT22;2330;48.158;11.816;2023-08-01T06:48:32;18.20;98.50
4635;DHT22;2330;48.158;11.816;2023-08-01T06:51:02;18.30;98.50
4635;DHT22;2330;48.158;11.816;2023-08-01T06:53:29;18.30;98.50
4635;DHT22;2330;48.158;11.816;2023-08-01T06:55:56;18.40;98.50
4635;DHT22;2330;48.158;11.816;2023-08-01T06:58:22;18.30;98.50
4635;DHT22;2330;48.158;11.816;2023-08-01T07:00:49;18.20;98.50
4635;DHT22;2330;48.158;11.816;2023-08-01T07:03:16;18.20;98.50
4635;DHT22;2330;48.158;11.816;2023-08-01T07:05:43;18.20;98.50
4635;DHT22;2330;48.158;11.816;2023-08-01T07:08:10;18.30;98.50
4635;DHT22;2330;48.158;11.816;2023-08-01T07:10:37;18.40;98.50
4635;DHT22;2330;48.158;11.816;2023-08-01T07:13:04;18.30;98.50
4635;DHT22;2330;48.158;11.816;2023-08-01T07:15:32;18.30;98.50
4635;DHT22;2330;48.158;11.816;2023-08-01T07:17:59;18.30;98.50
4635;DHT22;2330;48.158;11.816;2023-08-01T07:20:26;18.30;98.50
4635;DHT22;2330;48.158;11.816;2023-08-01T07:22:53;18.40;98.50
4635;DHT22;2330;48.158;11.816;2023-08-01T07:25:20;18.30;98.50
4635;DHT22;2330;48.158;11.816;2023-08-01T07:27:46;18.30;98.50
4635;DHT22;2330;48.158;11.816;2023-08-01T07:30:13;18.20;98.50
4635;DHT22;2330;48.158;11.816;2023-08-01T07:32:40;18.20;98.50
4635;DHT22;2330;48.158;11.816;2023-08-01T07:35:09;18.30;98.50
4635;DHT22;2330;48.158;11.816;2023-08-01T07:37:36;18.30;98.50
4635;DHT22;2330;48.158;11.816;2023-08-01T07:40:06;18.30;98.50
4635;DHT22;2330;48.158;11.816;2023-08-01T07:42:33;18.20;98.50
4635;DHT22;2330;48.158;11.816;2023-08-01T07:45:01;18.20;98.50
4635;DHT22;2330;48.158;11.816;2023-08-01T07:47:27;18.20;98.50
4635;DHT22;2330;48.158;11.816;2023-08-01T07:49:54;18.20;98.50
4635;DHT22;2330;48.158;11.816;2023-08-01T07:52:21;18.20;98.50
4635;DHT22;2330;48.158;11.816;2023-08-01T07:54:48;18.20;98.50
4635;DHT22;2330;48.158;11.816;2023-08-01T07:57:15;18.10;98.50
4635;DHT22;2330;48.158;11.816;2023-08-01T07:59:42;18.20;98.50
4635;DHT22;2330;48.158;11.816;2023-08-01T08:02:09;18.20;98.50
4635;DHT22;2330;48.158;11.816;2023-08-01T08:04:35;18.30;98.50
4635;DHT22;2330;48.158;11.816;2023-08-01T08:07:02;18.40;98.50
4635;DHT22;2330;48.158;11.816;2023-08-01T08:09:29;18.50;98.50
4635;DHT22;2330;48.158;11.816;2023-08-01T08:11:58;18.60;98.50
4635;DHT22;2330;48.158;11.816;2023-08-01T08:14:25;18.70;98.50
4635;DHT22;2330;48.158;11.816;2023-08-01T08:16:54;18.80;98.50
4635;DHT22;2330;48.158;11.816;2023-08-01T08:19:21;18.80;98.50
4635;DHT22;2330;48.158;11.816;2023-08-01T08:21:51;18.80;98.50
4635;DHT22;2330;48.158;11.816;2023-08-01T08:24:17;18.90;98.50
4635;DHT22;2330;48.158;11.816;2023-08-01T08:26:44;18.90;98.50
4635;DHT22;2330;48.158;11.816;2023-08-01T08:29:12;19.10;98.50
4635;DHT22;2330;48.158;11.816;2023-08-01T08:31:39;19.30;98.50
4635;DHT22;2330;48.158;11.816;2023-08-01T08:34:06;19.60;98.50
4635;DHT22;2330;48.158;11.816;2023-08-01T08:36:32;19.80;98.50
4635;DHT22;2330;48.158;11.816;2023-08-01T08:38:59;19.90;98.50
4635;DHT22;2330;48.158;11.816;2023-08-01T08:41:28;20.10;98.50
4635;DHT22;2330;48.158;11.816;2023-08-01T08:43:57;20.30;98.50
4635;DHT22;2330;48.158;11.816;2023-08-01T08:46:29;20.20;98.50
4635;DHT22;2330;48.158;11.816;2023-08-01T08:48:57;20.30;98.50
4635;DHT22;2330;48.158;11.816;2023-08-01T08:51:26;20.30;98.50
4635;DHT22;2330;48.158;11.816;2023-08-01T08:53:56;20.40;98.50
4635;DHT22;2330;48.158;11.816;2023-08-01T08:56:27;20.50;98.50
4635;DHT22;2330;48.158;11.816;2023-08-01T08:58:55;20.60;98.50
4635;DHT22;2330;48.158;11.816;2023-08-01T09:01:23;20.60;98.50
4635;DHT22;2330;48.158;11.816;2023-08-01T09:03:50;20.50;98.50
4635;DHT22;2330;48.158;11.816;2023-08-01T09:06:19;20.50;98.50
4635;DHT22;2330;48.158;11.816;2023-08-01T09:08:51;20.50;98.50
4635;DHT22;2330;48.158;11.816;2023-08-01T09:11:18;20.50;98.50
4635;DHT22;2330;48.158;11.816;2023-08-01T09:13:45;20.50;98.50
4635;DHT22;2330;48.158;11.816;2023-08-01T09:16:15;20.60;98.50
4635;DHT22;2330;48.158;11.816;2023-08-01T09:21:21;20.60;98.50
4635;DHT22;2330;48.158;11.816;2023-08-01T09:23:48;20.50;98.50
4635;DHT22;2330;48.158;11.816;2023-08-01T09:26:16;20.40;98.50
4635;DHT22;2330;48.158;11.816;2023-08-01T09:28:43;20.30;98.50
4635;DHT22;2330;48.158;11.816;2023-08-01T09:31:11;20.30;98.50
4635;DHT22;2330;48.158;11.816;2023-08-01T09:33:41;20.30;98.50
4635;DHT22;2330;48.158;11.816;2023-08-01T09:36:09;20.20;98.50
4635;DHT22;2330;48.158;11.816;2023-08-01T09:38:37;20.30;98.50
4635;DHT22;2330;48.158;11.816;2023-08-01T09:41:04;20.30;98.50
4635;DHT22;2330;48.158;11.816;2023-08-01T09:43:35;20.40;98.50
4635;DHT22;2330;48.158;11.816;2023-08-01T09:46:06;20.40;98.50
4635;DHT22;2330;48.158;11.816;2023-08-01T09:48:33;20.50;98.50
4635;DHT22;2330;48.158;11.816;2023-08-01T09:53:32;20.60;98.50
4635;DHT22;2330;48.158;11.816;2023-08-01T09:56:03;20.60;98.50
4635;DHT22;2330;48.158;11.816;2023-08-01T09:58:32;20.60;98.50
4635;DHT22;2330;48.158;11.816;2023-08-01T10:01:01;20.70;98.50
4635;DHT22;2330;48.158;11.816;2023-08-01T10:03:28;20.60;98.50
4635;DHT22;2330;48.158;11.816;2023-08-01T10:05:56;20.60;98.50
4635;DHT22;2330;48.158;11.816;2023-08-01T10:08:25;20.60;98.50
4635;DHT22;2330;48.158;11.816;2023-08-01T10:10:54;20.70;97.90
4635;DHT22;2330;48.158;11.816;2023-08-01T10:13:24;20.70;96.00
4635;DHT22;2330;48.158;11.816;2023-08-01T10:15:54;20.60;96.50
4635;DHT22;2330;48.158;11.816;2023-08-01T10:18:22;20.60;97.60
4635;DHT22;2330;48.158;11.816;2023-08-01T10:20:49;20.70;97.30
4635;DHT22;2330;48.158;11.816;2023-08-01T10:23:19;20.50;98.10
4635;DHT22;2330;48.158;11.816;2023-08-01T10:25:47;20.00;98.30
4635;DHT22;2330;48.158;11.816;2023-08-01T10:28:13;19.70;98.50
4635;DHT22;2330;48.158;11.816;2023-08-01T10:30:43;19.60;98.50
4635;DHT22;2330;48.158;11.816;2023-08-01T10:33:10;19.60;98.50
4635;DHT22;2330;48.158;11.816;2023-08-01T10:35:40;19.60;98.50
4635;DHT22;2330;48.158;11.816;2023-08-01T10:38:09;19.60;98.50
4635;DHT22;2330;48.158;11.816;2023-08-01T10:40:41;19.40;98.50
4635;DHT22;2330;48.158;11.816;2023-08-01T10:43:24;19.20;98.50
4635;DHT22;2330;48.158;11.816;2023-08-01T10:46:04;19.00;98.50
4635;DHT22;2330;48.158;11.816;2023-08-01T10:48:31;18.70;98.50
4635;DHT22;2330;48.158;11.816;2023-08-01T10:50:58;18.70;98.50
4635;DHT22;2330;48.158;11.816;2023-08-01T10:53:25;18.80;98.50
4635;DHT22;2330;48.158;11.816;2023-08-01T10:55:52;18.90;98.50
4635;DHT22;2330;48.158;11.816;2023-08-01T10:58:26;19.10;98.50
4635;DHT22;2330;48.158;11.816;2023-08-01T11:00:58;19.20;98.50
4635;DHT22;2330;48.158;11.816;2023-08-01T11:03:39;19.20;98.50
4635;DHT22;2330;48.158;11.816;2023-08-01T11:06:06;19.20;98.50
4635;DHT22;2330;48.158;11.816;2023-08-01T11:08:38;19.20;98.50
4635;DHT22;2330;48.158;11.816;2023-08-01T11:11:10;19.00;98.50
4635;DHT22;2330;48.158;11.816;2023-08-01T11:13:40;19.00;98.50
4635;DHT22;2330;48.158;11.816;2023-08-01T11:16:07;19.00;98.50
4635;DHT22;2330;48.158;11.816;2023-08-01T11:18:42;19.20;98.50
4635;DHT22;2330;48.158;11.816;2023-08-01T11:21:08;19.20;98.50
4635;DHT22;2330;48.158;11.816;2023-08-01T11:23:35;19.30;98.50
4635;DHT22;2330;48.158;11.816;2023-08-01T11:26:08;19.30;98.50
4635;DHT22;2330;48.158;11.816;2023-08-01T11:28:35;19.40;98.50
4635;DHT22;2330;48.158;11.816;2023-08-01T11:31:11;19.40;98.50
4635;DHT22;2330;48.158;11.816;2023-08-01T11:33:39;19.30;98.50
4635;DHT22;2330;48.158;11.816;2023-08-01T11:36:06;19.30;98.50
4635;DHT22;2330;48.158;11.816;2023-08-01T11:38:34;19.20;98.50
4635;DHT22;2330;48.158;11.816;2023-08-01T11:41:03;19.10;98.50
4635;DHT22;2330;48.158;11.816;2023-08-01T11:43:42;19.10;98.50
4635;DHT22;2330;48.158;11.816;2023-08-01T11:46:09;19.10;98.50
4635;DHT22;2330;48.158;11.816;2023-08-01T11:48:36;19.20;98.50
4635;DHT22;2330;48.158;11.816;2023-08-01T11:51:03;19.20;98.50
4635;DHT22;2330;48.158;11.816;2023-08-01T11:53:30;19.20;98.50
4635;DHT22;2330;48.158;11.816;2023-08-01T11:56:05;19.20;98.50
4635;DHT22;2330;48.158;11.816;2023-08-01T11:58:39;19.20;98.50
4635;DHT22;2330;48.158;11.816;2023-08-01T12:01:13;19.20;98.50
4635;DHT22;2330;48.158;11.816;2023-08-01T12:03:51;19.10;98.50
4635;DHT22;2330;48.158;11.816;2023-08-01T12:06:19;19.10;98.50
4635;DHT22;2330;48.158;11.816;2023-08-01T12:08:52;19.00;98.50
4635;DHT22;2330;48.158;11.816;2023-08-01T12:11:23;18.80;98.50
4635;DHT22;2330;48.158;11.816;2023-08-01T12:14:10;18.80;98.50
4635;DHT22;2330;48.158;11.816;2023-08-01T12:16:38;18.70;98.50
4635;DHT22;2330;48.158;11.816;2023-08-01T12:19:08;18.70;98.50
4635;DHT22;2330;48.158;11.816;2023-08-01T12:21:35;18.70;98.50
4635;DHT22;2330;48.158;11.816;2023-08-01T12:24:03;18.70;98.50
4635;DHT22;2330;48.158;11.816;2023-08-01T12:26:30;18.80;98.50
4635;DHT22;2330;48.158;11.816;2023-08-01T12:28:57;19.00;98.50
4635;DHT22;2330;48.158;11.816;2023-08-01T12:31:24;19.30;98.50
4635;DHT22;2330;48.158;11.816;2023-08-01T12:33:51;19.80;98.50
4635;DHT22;2330;48.158;11.816;2023-08-01T12:36:20;20.20;98.50
4635;DHT22;2330;48.158;11.816;2023-08-01T12:38:47;20.50;98.50
4635;DHT22;2330;48.158;11.816;2023-08-01T12:41:14;20.50;98.50
4635;DHT22;2330;48.158;11.816;2023-08-01T12:43:41;20.20;98.50
4635;DHT22;2330;48.158;11.816;2023-08-01T12:46:08;20.20;98.50
4635;DHT22;2330;48.158;11.816;2023-08-01T12:48:35;20.20;98.50
4635;DHT22;2330;48.158;11.816;2023-08-01T12:51:02;20.30;98.50
4635;DHT22;2330;48.158;11.816;2023-08-01T12:53:29;20.20;98.50
4635;DHT22;2330;48.158;11.816;2023-08-01T12:55:56;20.20;98.50
4635;DHT22;2330;48.158;11.816;2023-08-01T12:58:23;20.30;98.50
4635;DHT22;2330;48.158;11.816;2023-08-01T13:00:50;20.40;98.50
4635;DHT22;2330;48.158;11.816;2023-08-01T13:03:17;20.40;98.50
4635;DHT22;2330;48.158;11.816;2023-08-01T13:05:46;20.50;98.50
4635;DHT22;2330;48.158;11.816;2023-08-01T13:08:13;20.60;98.50
4635;DHT22;2330;48.158;11.816;2023-08-01T13:10:39;20.60;98.50
4635;DHT22;2330;48.158;11.816;2023-08-01T13:13:06;20.40;98.50
4635;DHT22;2330;48.158;11.816;2023-08-01T13:15:33;20.10;98.50
4635;DHT22;2330;48.158;11.816;2023-08-01T13:18:00;19.80;98.50
4635;DHT22;2330;48.158;11.816;2023-08-01T13:20:27;19.90;98.50
4635;DHT22;2330;48.158;11.816;2023-08-01T13:22:57;20.10;98.50
4635;DHT22;2330;48.158;11.816;2023-08-01T13:25:23;20.10;98.50
4635;DHT22;2330;48.158;11.816;2023-08-01T13:27:50;20.20;98.50
4635;DHT22;2330;48.158;11.816;2023-08-01T13:30:17;20.20;98.50
4635;DHT22;2330;48.158;11.816;2023-08-01T13:32:45;20.10;98.50
4635;DHT22;2330;48.158;11.816;2023-08-01T13:35:13;20.00;98.50
4635;DHT22;2330;48.158;11.816;2023-08-01T13:37:41;20.00;98.50
4635;DHT22;2330;48.158;11.816;2023-08-01T13:40:08;20.00;98.50
4635;DHT22;2330;48.158;11.816;2023-08-01T13:42:37;20.10;98.50
4635;DHT22;2330;48.158;11.816;2023-08-01T13:45:04;20.20;98.50
4635;DHT22;2330;48.158;11.816;2023-08-01T13:47:31;20.50;98.50
4635;DHT22;2330;48.158;11.816;2023-08-01T13:49:58;21.10;98.50
4635;DHT22;2330;48.158;11.816;2023-08-01T13:52:25;21.30;98.50
4635;DHT22;2330;48.158;11.816;2023-08-01T13:54:51;21.30;98.50
4635;DHT22;2330;48.158;11.816;2023-08-01T13:57:18;21.30;98.50
4635;DHT22;2330;48.158;11.816;2023-08-01T13:59:45;21.80;98.50
4635;DHT22;2330;48.158;11.816;2023-08-01T14:02:32;22.40;97.80
4635;DHT22;2330;48.158;11.816;2023-08-01T14:04:59;22.70;96.00
4635;DHT22;2330;48.158;11.816;2023-08-01T14:07:25;22.80;95.70
4635;DHT22;2330;48.158;11.816;2023-08-01T14:09:55;22.60;95.10
4635;DHT22;2330;48.158;11.816;2023-08-01T14:12:21;22.50;95.00
4635;DHT22;2330;48.158;11.816;2023-08-01T14:14:51;22.40;94.70
4635;DHT22;2330;48.158;11.816;2023-08-01T14:17:17;22.20;94.20
4635;DHT22;2330;48.158;11.816;2023-08-01T14:19:44;22.20;94.80
4635;DHT22;2330;48.158;11.816;2023-08-01T14:22:11;22.20;95.70
4635;DHT22;2330;48.158;11.816;2023-08-01T14:24:38;22.10;96.60
4635;DHT22;2330;48.158;11.816;2023-08-01T14:27:05;21.80;97.20
4635;DHT22;2330;48.158;11.816;2023-08-01T14:29:32;21.40;98.20
4635;DHT22;2330;48.158;11.816;2023-08-01T14:31:59;21.10;98.50
4635;DHT22;2330;48.158;11.816;2023-08-01T14:34:25;21.00;98.50
4635;DHT22;2330;48.158;11.816;2023-08-01T14:36:52;20.70;98.50
4635;DHT22;2330;48.158;11.816;2023-08-01T14:39:19;20.60;98.50
4635;DHT22;2330;48.158;11.816;2023-08-01T14:41:49;20.50;98.50
4635;DHT22;2330;48.158;11.816;2023-08-01T14:44:19;20.30;98.50
4635;DHT22;2330;48.158;11.816;2023-08-01T14:46:46;20.10;98.50
4635;DHT22;2330;48.158;11.816;2023-08-01T14:49:13;20.00;98.50
4635;DHT22;2330;48.158;11.816;2023-08-01T14:51:39;20.00;98.50
4635;DHT22;2330;48.158;11.816;2023-08-01T14:54:06;20.10;98.50
4635;DHT22;2330;48.158;11.816;2023-08-01T14:56:33;20.30;98.50
4635;DHT22;2330;48.158;11.816;2023-08-01T14:59:00;20.20;98.50
4635;DHT22;2330;48.158;11.816;2023-08-01T15:01:27;20.20;98.50
4635;DHT22;2330;48.158;11.816;2023-08-01T15:03:53;20.20;98.50
4635;DHT22;2330;48.158;11.816;2023-08-01T15:06:20;20.00;98.50
4635;DHT22;2330;48.158;11.816;2023-08-01T15:08:47;20.10;98.50
4635;DHT22;2330;48.158;11.816;2023-08-01T15:11:15;20.20;98.50
4635;DHT22;2330;48.158;11.816;2023-08-01T15:13:42;20.50;98.50
4635;DHT22;2330;48.158;11.816;2023-08-01T15:16:10;20.70;98.50
4635;DHT22;2330;48.158;11.816;2023-08-01T15:18:41;20.80;98.50
4635;DHT22;2330;48.158;11.816;2023-08-01T15:21:08;20.80;98.50
4635;DHT22;2330;48.158;11.816;2023-08-01T15:23:35;20.70;98.50
4635;DHT22;2330;48.158;11.816;2023-08-01T15:26:02;20.60;98.50
4635;DHT22;2330;48.158;11.816;2023-08-01T15:28:29;20.50;98.50
4635;DHT22;2330;48.158;11.816;2023-08-01T15:31:06;20.40;98.50
4635;DHT22;2330;48.158;11.816;2023-08-01T15:33:38;20.30;98.50
4635;DHT22;2330;48.158;11.816;2023-08-01T15:36:06;20.30;98.50
4635;DHT22;2330;48.158;11.816;2023-08-01T15:38:37;20.30;98.50
4635;DHT22;2330;48.158;11.816;2023-08-01T15:41:05;20.20;98.50
4635;DHT22;2330;48.158;11.816;2023-08-01T15:43:40;20.00;98.50
4635;DHT22;2330;48.158;11.816;2023-08-01T15:46:08;19.80;98.50
4635;DHT22;2330;48.158;11.816;2023-08-01T15:48:36;19.60;98.50
4635;DHT22;2330;48.158;11.816;2023-08-01T15:51:04;19.40;98.50
4635;DHT22;2330;48.158;11.816;2023-08-01T15:53:32;19.30;98.50
4635;DHT22;2330;48.158;11.816;2023-08-01T15:56:02;19.30;98.50
4635;DHT22;2330;48.158;11.816;2023-08-01T15:58:29;19.30;98.50